Time;durP1;ratioP1;P1;durP2;ratioP2;P2;SDS_P1;SDS_P2;PMS_P1;PMS_P2;Temp;Humidity;BMP_temperature;BMP_pressure;BME280_temperature;BME280_humidity;BME280_pressure;Samples;Min_cycle;Max_cycle;Signal;HPM_P1;HPM_P2
2022/08/31 00:08:30;;;;;;;1.95;0.90;;;24.90;89.30;;;;;;20904373;28;20259;-73
2022/08/31 00:18:32;;;;;;;1.67;1.02;;;;;;;;;;20921394;22;20228;-74
2022/08/31 00:28:34;;;;;;;1.67;0.77;;;;;;;;;;20872457;28;20220;-73
2022/08/31 00:38:36;;;;;;;2.35;1.02;;;;;;;;;;20870671;28;20293;-73
2022/08/31 00:48:46;;;;;;;1.60;0.80;;;;;;;;;;20871298;28;20211;-73
2022/08/31 00:58:50;;;;;;;1.48;0.80;;;24.50;99.90;;;;;;20887483;28;20220;-73
2022/08/31 01:08:54;;;;;;;1.40;0.90;;;24.50;98.00;;;;;;20870608;28;20212;-73
2022/08/31 01:19:00;;;;;;;1.23;0.80;;;24.30;99.90;;;;;;20853843;28;20779;-73
2022/08/31 01:29:04;;;;;;;1.33;0.70;;;;;;;;;;20886473;28;20209;-72
2022/08/31 01:39:08;;;;;;;1.75;0.80;;;24.10;99.90;;;;;;20869565;28;20217;-73
2022/08/31 01:49:11;;;;;;;1.52;0.98;;;;;;;;;;20878614;28;20266;-72
2022/08/31 01:59:17;;;;;;;1.65;1.00;;;20.80;99.90;;;;;;20883419;28;20221;-73
2022/08/31 02:09:41;;;;;;;1.30;0.80;;;;;;;;;;20889674;28;20763;-73
2022/08/31 02:19:43;;;;;;;1.30;0.80;;;;;;;;;;20865617;28;20225;-73
2022/08/31 02:29:45;;;;;;;1.50;0.90;;;;;;;;;;20864802;28;20218;-72
2022/08/31 02:39:47;;;;;;;0.95;0.68;;;;;;;;;;20864209;28;20282;-72
2022/08/31 02:49:49;;;;;;;1.17;0.80;;;;;;;;;;20880090;28;20205;-72
2022/08/31 02:59:51;;;;;;;1.25;0.93;;;;;;;;;;20861836;28;20214;-72
2022/08/31 03:09:53;;;;;;;1.17;0.90;;;;;;;;;;20878215;28;20808;-73
2022/08/31 03:19:59;;;;;;;1.23;0.88;;;23.50;99.90;;;;;;20860863;28;20233;-73
2022/08/31 03:30:03;;;;;;;1.08;0.77;;;;;;;;;;20860705;28;20275;-73
2022/08/31 03:40:07;;;;;;;1.35;0.85;;;23.50;99.90;;;;;;20892252;28;20781;-72
2022/08/31 03:50:09;;;;;;;1.35;0.90;;;;;;;;;;20842620;28;20260;-72
2022/08/31 04:00:32;;;;;;;1.70;0.85;;;23.20;99.90;;;;;;20876986;28;20612;-72
2022/08/31 04:10:40;;;;;;;1.88;1.10;;;23.30;99.90;;;;;;20873818;28;20208;-72
2022/08/31 04:21:00;;;;;;;1.88;0.95;;;;;;;;;;20877532;28;20271;-72
2022/08/31 04:31:07;;;;;;;1.20;0.80;;;23.30;99.90;;;;;;20872903;28;20257;-72
2022/08/31 04:41:11;;;;;;;4.25;1.67;;;23.20;99.90;;;;;;20888189;28;20210;-72
2022/08/31 04:51:15;;;;;;;2.03;1.20;;;;;;;;;;20871365;28;20216;-72
2022/08/31 05:01:20;;;;;;;1.42;0.93;;;23.10;99.90;;;;;;20870775;28;20587;-72
2022/08/31 05:11:41;;;;;;;3.53;1.17;;;;;;;;;;20889034;28;20579;-73
2022/08/31 05:21:43;;;;;;;1.80;0.80;;;23.10;99.90;;;;;;20875635;28;20229;-72
2022/08/31 05:31:49;;;;;;;1.23;0.80;;;;;;;;;;20869854;28;20210;-73
2022/08/31 05:41:53;;;;;;;1.55;0.70;;;;;;;;;;20884310;28;20221;-72
2022/08/31 05:51:55;;;;;;;2.42;1.00;;;;;;;;;;20868300;28;20269;-73
2022/08/31 06:01:58;;;;;;;2.72;0.90;;;;;;;;;;20882986;28;20215;-73
2022/08/31 06:12:04;;;;;;;2.58;1.00;;;;;;;;;;20882016;28;20226;-73
2022/08/31 06:22:06;;;;;;;2.25;1.00;;;;;;;;;;20904751;22;20745;-71
2022/08/31 06:32:09;;;;;;;2.50;0.90;;;;;;;;;;20846079;28;20209;-72
2022/08/31 06:42:15;;;;;;;2.15;0.80;;;;;;;;;;20828645;28;20591;-72
2022/08/31 06:52:35;;;;;;;1.83;0.90;;;;;;;;;;20829029;28;20196;-71
2022/08/31 07:02:54;;;;;;;1.73;0.88;;;;;;;;;;20826680;28;20631;-72
2022/08/31 07:12:56;;;;;;;1.40;0.80;;;;;;;;;;20826519;28;20212;-71
2022/08/31 07:22:58;;;;;;;3.22;1.10;;;;;;;;;;20824250;28;20241;-72
2022/08/31 07:33:06;;;;;;;1.48;0.82;;;;;;;;;;20824089;28;20225;-73
2022/08/31 07:43:11;;;;;;;1.90;0.90;;;;;;;;;;20822885;28;20278;-71
2022/08/31 07:53:13;;;;;;;3.35;1.42;;;;;;;;;;20823278;28;20257;-73
2022/08/31 08:03:34;;;;;;;4.38;1.10;;;;;;;;;;20823589;28;20219;-73
2022/08/31 08:13:54;;;;;;;7.75;1.40;;;;;;;;;;20822723;28;20229;-73
2022/08/31 08:24:06;;;;;;;2.10;1.13;;;;;;;;;;20819939;28;20734;-71
2022/08/31 08:34:26;;;;;;;3.58;1.55;;;;;;;;;;20821319;28;20265;-72
2022/08/31 08:44:29;;;;;;;3.42;1.38;;;;;;;;;;20820055;28;20595;-72
2022/08/31 08:54:37;;;;;;;1.42;0.95;;;;;;;;;;20822151;28;20842;-72
2022/08/31 09:04:39;;;;;;;1.55;1.00;;;;;;;;;;20836496;28;20243;-71
2022/08/31 09:15:02;;;;;;;3.25;1.80;;;;;;;;;;20833313;28;20301;-72
2022/08/31 09:25:05;;;;;;;2.58;1.40;;;;;;;;;;20834093;28;20582;-71
2022/08/31 09:35:40;;;;;;;2.30;1.25;;;;;;;;;;20832938;28;20216;-71
2022/08/31 09:45:50;;;;;;;3.08;1.60;;;;;;;;;;20833138;28;20216;-71
2022/08/31 09:56:30;;;;;;;2.65;1.52;;;;;;;;;;20833347;28;20375;-71
2022/08/31 10:06:43;;;;;;;4.03;1.57;;;;;;;;;;20627686;28;20224;-71
2022/08/31 10:16:47;;;;;;;2.10;1.17;;;;;;;;;;20830551;28;20233;-71
2022/08/31 10:27:01;;;;;;;2.80;1.35;;;21.20;99.90;;;;;;20831489;28;20200;-71
2022/08/31 10:37:11;;;;;;;2.13;0.75;;;;;;;;;;20845687;28;20328;-71
2022/08/31 10:47:14;;;;;;;1.23;0.70;;;;;;;;;;20829254;28;20293;-72
2022/08/31 10:57:28;;;;;;;1.70;0.93;;;;;;;;;;20827634;28;20290;-71
2022/08/31 11:07:42;;;;;;;1.45;0.90;;;;;;;;;;20826450;28;20207;-72
2022/08/31 11:17:48;;;;;;;1.55;1.10;;;;;;;;;;20824946;28;20680;-72
2022/08/31 11:27:59;;;;;;;0.90;0.60;;;21.60;99.90;;;;;;20825302;28;20238;-72
2022/08/31 11:38:00;;;;;;;2.03;0.75;;;;;;;;;;20825892;28;20615;-73
2022/08/31 11:48:04;;;;;;;1.35;0.95;;;;;;;;;;20825426;28;20266;-73
2022/08/31 11:58:14;;;;;;;2.92;1.40;;;21.90;99.90;;;;;;20825777;28;20212;-71
2022/08/31 12:08:16;;;;;;;2.60;1.40;;;;;;;;;;20824478;28;20240;-71
2022/08/31 12:18:37;;;;;;;2.58;1.83;;;;;;;;;;20873731;22;20281;-70
2022/08/31 12:29:02;;;;;;;2.67;1.80;;;21.90;99.90;;;;;;20905200;28;20256;-70
2022/08/31 12:39:07;;;;;;;2.20;1.80;;;;;;;;;;20903552;28;20243;-70
2022/08/31 12:49:15;;;;;;;3.35;1.77;;;;;;;;;;20904645;28;20237;-70
2022/08/31 12:59:20;;;;;;;2.15;1.75;;;;;;;;;;20886158;28;20215;-70
2022/08/31 13:09:23;;;;;;;2.83;1.52;;;22.40;99.90;;;;;;20904706;28;20260;-69
2022/08/31 13:19:28;;;;;;;2.20;1.25;;;22.50;99.90;;;;;;20883944;28;20213;-71
2022/08/31 13:29:42;;;;;;;2.50;1.33;;;;;;;;;;20902272;28;20247;-69
2022/08/31 13:39:45;;;;;;;2.70;1.60;;;22.70;99.90;;;;;;20903470;28;20624;-69
2022/08/31 13:49:52;;;;;;;2.55;1.90;;;22.50;99.90;;;;;;20917064;28;20192;-69
2022/08/31 13:59:54;;;;;;;2.33;1.80;;;;;;;;;;20915703;28;20277;-69
2022/08/31 14:10:06;;;;;;;3.20;2.08;;;22.70;99.90;;;;;;20881871;28;20213;-70
2022/08/31 14:20:43;;;;;;;2.38;1.90;;;;;;;;;;20913955;28;20205;-70
2022/08/31 14:30:44;;;;;;;3.55;2.00;;;;;;;;;;20871744;28;20223;-70
2022/08/31 14:40:48;;;;;;;2.55;1.90;;;;;;;;;;20913631;28;20221;-70
2022/08/31 14:50:50;;;;;;;2.78;1.90;;;;;;;;;;20910604;28;20676;-70
2022/08/31 15:00:51;;;;;;;4.30;1.60;;;;;;;;;;20912188;28;20239;-71
2022/08/31 15:10:55;;;;;;;3.15;1.77;;;;;;;;;;20911637;28;20255;-71
2022/08/31 15:20:57;;;;;;;2.33;1.70;;;23.90;99.90;;;;;;20909248;28;20635;-71
2022/08/31 15:31:00;;;;;;;3.08;1.70;;;;;;;;;;20909844;28;20206;-68
2022/08/31 15:41:03;;;;;;;4.05;1.75;;;;;;;;;;20908510;28;20242;-68
2022/08/31 15:51:09;;;;;;;2.60;1.67;;;;;;;;;;20908114;28;20281;-68
2022/08/31 16:01:15;;;;;;;3.58;1.55;;;23.40;99.90;;;;;;20906998;28;20224;-69
2022/08/31 16:11:17;;;;;;;2.05;1.50;;;;;;;;;;20905066;28;20202;-71
2022/08/31 16:21:20;;;;;;;2.53;1.73;;;23.40;99.90;;;;;;20905128;28;20216;-70
2022/08/31 16:31:23;;;;;;;1.90;1.45;;;;;;;;;;20904810;28;20205;-70
2022/08/31 16:41:30;;;;;;;4.20;1.50;;;;;;;;;;20905185;28;20258;-70
2022/08/31 16:51:32;;;;;;;3.88;1.50;;;;;;;;;;20904197;28;20261;-70
2022/08/31 17:01:38;;;;;;;2.45;1.70;;;23.40;99.90;;;;;;20904008;28;20218;-70
2022/08/31 17:11:46;;;;;;;3.13;1.30;;;;;;;;;;20902972;28;20215;-70
2022/08/31 17:21:49;;;;;;;2.25;1.40;;;;;;;;;;20914411;28;20231;-69
2022/08/31 17:31:51;;;;;;;2.70;1.50;;;;;;;;;;20918417;28;20242;-69
2022/08/31 17:41:54;;;;;;;2.42;1.60;;;;;;;;;;20917988;28;20626;-69
2022/08/31 17:51:56;;;;;;;3.20;1.70;;;;;;;;;;20898716;28;20244;-70
2022/08/31 18:02:01;;;;;;;2.28;1.40;;;22.90;99.90;;;;;;20916185;28;20217;-70
2022/08/31 18:12:05;;;;;;;4.68;2.03;;;;;;;;;;20916028;28;20203;-70
2022/08/31 18:22:06;;;;;;;3.25;1.80;;;;;;;;;;20929018;22;20261;-72
2022/08/31 18:32:09;;;;;;;2.20;1.50;;;;;;;;;;20914982;28;20194;-72
2022/08/31 18:52:31;;;;;;;2.15;1.60;;;;;;;;;;20913336;28;20210;-72
2022/08/31 19:02:39;;;;;;;2.30;1.50;;;;;;;;;;20911705;28;20597;-72
2022/08/31 19:12:44;;;;;;;2.55;1.63;;;;;;;;;;20911638;28;20213;-72
2022/08/31 19:22:46;;;;;;;2.55;1.73;;;;;;;;;;20910292;28;20261;-72
2022/08/31 19:32:47;;;;;;;1.80;1.40;;;;;;;;;;20909865;28;20210;-71
2022/08/31 19:42:50;;;;;;;2.30;1.25;;;;;;;;;;20908434;28;20553;-72
2022/08/31 19:52:52;;;;;;;3.35;1.60;;;;;;;;;;20908128;28;20204;-72
2022/08/31 20:02:54;;;;;;;1.95;1.38;;;;;;;;;;20907930;28;20241;-72
2022/08/31 20:12:56;;;;;;;2.08;1.35;;;;;;;;;;20907527;28;20213;-72
2022/08/31 20:22:57;;;;;;;1.70;1.30;;;;;;;;;;20906243;28;20210;-72
2022/08/31 20:32:59;;;;;;;3.10;1.30;;;;;;;;;;20904805;28;20213;-72
2022/08/31 20:43:02;;;;;;;3.40;1.30;;;;;;;;;;20906195;28;20620;-72
2022/08/31 20:53:07;;;;;;;1.75;1.20;;;;;;;;;;20903625;28;20210;-71
2022/08/31 21:03:10;;;;;;;2.17;1.43;;;21.20;99.90;;;;;;20902356;28;20235;-72
2022/08/31 21:13:14;;;;;;;1.67;1.10;;;;;;;;;;20904053;28;20244;-72
2022/08/31 21:23:17;;;;;;;2.95;1.27;;;;;;;;;;20902841;28;20310;-71
2022/08/31 21:33:18;;;;;;;2.53;1.10;;;;;;;;;;20903008;28;20206;-72
2022/08/31 21:43:20;;;;;;;4.67;1.03;;;;;;;;;;20902885;28;20339;-72
2022/08/31 21:53:24;;;;;;;1.60;1.10;;;20.90;99.90;;;;;;20902263;28;20622;-72
2022/08/31 22:03:26;;;;;;;1.93;1.30;;;;;;;;;;20907625;28;20221;-72
2022/08/31 22:13:28;;;;;;;2.10;1.40;;;;;;;;;;20917274;28;20200;-71
2022/08/31 22:23:30;;;;;;;1.73;1.10;;;;;;;;;;20914507;28;20220;-72
2022/08/31 22:33:31;;;;;;;1.57;1.10;;;;;;;;;;20915530;28;20258;-72
2022/08/31 22:43:33;;;;;;;1.83;1.20;;;;;;;;;;20913257;28;20776;-72
2022/08/31 22:53:35;;;;;;;2.33;1.20;;;20.10;99.90;;;;;;20913481;28;20204;-72
2022/08/31 23:03:37;;;;;;;1.70;1.40;;;;;;;;;;20912055;28;20291;-71
2022/08/31 23:13:54;;;;;;;2.03;1.30;;;;;;;;;;20911058;28;20270;-71
2022/08/31 23:23:56;;;;;;;2.37;1.10;;;;;;;;;;20909514;28;20760;-71
2022/08/31 23:33:57;;;;;;;1.67;1.10;;;;;;;;;;20910586;28;20200;-72
2022/08/31 23:43:59;;;;;;;2.67;1.40;;;;;;;;;;20909049;28;20696;-72
2022/08/31 23:54:05;;;;;;;1.70;1.30;;;;;;;;;;20907723;28;20204;-72
